createdAt,value
2018-12-22T00:00:28.606Z,72.96
2018-12-22T00:02:57.807Z,72.67
2018-12-22T00:05:27.353Z,72.82
2018-12-22T00:07:56.510Z,72.87
2018-12-22T00:10:25.711Z,72.85
2018-12-22T00:12:54.994Z,72.81
2018-12-22T00:15:24.136Z,72.70
2018-12-22T00:17:53.285Z,72.38
2018-12-22T00:20:23.848Z,72.47
2018-12-22T00:22:53.009Z,72.64
2018-12-22T00:25:22.138Z,73.08
2018-12-22T00:27:51.313Z,73.22
2018-12-22T00:30:21.250Z,73.00
2018-12-22T00:32:50.388Z,72.98
2018-12-22T00:35:19.774Z,72.57
2018-12-22T00:37:49.115Z,72.72
2018-12-22T00:40:18.218Z,72.36
2018-12-22T00:42:47.586Z,72.81
2018-12-22T00:45:16.850Z,72.12
2018-12-22T00:47:46.283Z,72.15
2018-12-22T00:50:15.663Z,72.42
2018-12-22T00:52:44.951Z,72.67
2018-12-22T00:55:14.205Z,72.71
2018-12-22T00:57:43.509Z,72.67
2018-12-22T01:00:13.783Z,72.88
2018-12-22T01:02:43.181Z,73.01
2018-12-22T01:05:12.559Z,72.77
2018-12-22T01:07:41.727Z,73.30
2018-12-22T01:10:11.088Z,72.71
2018-12-22T01:12:40.334Z,73.09
2018-12-22T01:15:09.572Z,73.29
2018-12-22T01:17:38.886Z,73.47
2018-12-22T01:20:09.369Z,73.05
2018-12-22T01:22:38.772Z,73.66
2018-12-22T01:25:08.129Z,73.47
2018-12-22T01:27:37.581Z,72.80
2018-12-22T01:30:07.291Z,72.65
2018-12-22T01:32:36.229Z,73.17
2018-12-22T01:35:06.070Z,72.54
2018-12-22T01:37:35.093Z,72.77
2018-12-22T01:40:04.748Z,73.25
2018-12-22T01:42:33.926Z,72.89
2018-12-22T01:45:04.212Z,73.10
2018-12-22T01:47:33.266Z,73.08
2018-12-22T01:50:04.020Z,73.08
2018-12-22T01:52:33.259Z,72.60
2018-12-22T01:55:02.174Z,72.57
2018-12-22T01:57:31.618Z,72.69
2018-12-22T02:00:00.623Z,72.48
2018-12-22T02:02:29.753Z,72.43
2018-12-22T02:04:59.289Z,72.63
2018-12-22T02:07:28.397Z,72.38
2018-12-22T02:09:57.520Z,72.33
2018-12-22T02:12:26.526Z,72.71
2018-12-22T02:14:55.748Z,72.66
2018-12-22T02:17:24.818Z,72.46
2018-12-22T02:19:55.118Z,72.58
2018-12-22T02:22:24.516Z,72.62
2018-12-22T02:24:53.660Z,72.41
2018-12-22T02:27:23.144Z,72.92
2018-12-22T02:29:52.240Z,73.00
2018-12-22T02:32:21.284Z,72.81
2018-12-22T02:34:50.481Z,72.86
2018-12-22T02:37:19.858Z,72.44
2018-12-22T02:39:49.123Z,72.16
2018-12-22T02:42:18.352Z,72.63
2018-12-22T02:44:47.350Z,72.94
2018-12-22T02:47:16.643Z,73.19
2018-12-22T02:49:45.874Z,73.58
2018-12-22T02:52:15.232Z,73.48
2018-12-22T02:54:44.881Z,73.10
2018-12-22T02:57:14.284Z,73.04
2018-12-22T02:59:43.291Z,72.61
2018-12-22T03:02:12.339Z,72.35
2018-12-22T03:04:41.391Z,72.71
2018-12-22T03:07:10.462Z,72.75
2018-12-22T03:09:39.538Z,72.89
2018-12-22T03:12:09.080Z,72.47
2018-12-22T03:14:38.214Z,73.42
2018-12-22T03:17:07.145Z,72.99
2018-12-22T03:19:36.510Z,72.49
2018-12-22T03:22:05.783Z,72.67
2018-12-22T03:24:35.095Z,72.37
2018-12-22T03:27:04.539Z,72.15
2018-12-22T03:29:33.524Z,72.68
2018-12-22T03:32:02.817Z,72.98
2018-12-22T03:34:32.020Z,72.80
2018-12-22T03:37:01.054Z,72.71
2018-12-22T03:39:30.021Z,72.42
2018-12-22T03:41:59.186Z,72.37
2018-12-22T03:44:28.338Z,72.20
2018-12-22T03:46:57.662Z,72.33
2018-12-22T03:49:26.945Z,72.16
2018-12-22T03:51:56.064Z,72.67
2018-12-22T03:54:25.189Z,72.45
2018-12-22T03:56:54.667Z,72.29
2018-12-22T03:59:24.959Z,72.38
2018-12-22T04:01:54.614Z,72.47
2018-12-22T04:04:24.059Z,72.85
2018-12-22T04:06:53.347Z,73.13
2018-12-22T04:09:22.469Z,72.60
2018-12-22T04:11:51.583Z,73.00
2018-12-22T04:14:20.971Z,72.28
2018-12-22T04:16:49.957Z,72.02
2018-12-22T04:19:19.307Z,72.11
2018-12-22T04:21:48.489Z,72.88
2018-12-22T04:24:17.571Z,72.88
2018-12-22T04:26:46.892Z,72.47
2018-12-22T04:29:15.971Z,72.59
2018-12-22T04:31:44.979Z,73.06
2018-12-22T04:34:13.899Z,72.88
2018-12-22T04:36:42.970Z,72.34
2018-12-22T04:39:12.026Z,72.16
2018-12-22T04:41:41.317Z,71.96
2018-12-22T04:44:10.377Z,72.06
2018-12-22T04:46:39.446Z,71.68
2018-12-22T04:49:08.753Z,72.07
2018-12-22T04:51:37.996Z,72.47
2018-12-22T04:54:06.781Z,72.07
2018-12-22T04:56:36.316Z,72.53
2018-12-22T04:59:05.692Z,72.45
2018-12-22T05:01:34.841Z,72.49
2018-12-22T05:04:04.189Z,72.54
2018-12-22T05:06:33.311Z,71.75
2018-12-22T05:09:02.105Z,72.02
2018-12-22T05:11:31.478Z,71.81
2018-12-22T05:14:00.688Z,71.53
2018-12-22T05:16:30.160Z,71.83
2018-12-22T05:18:59.381Z,71.89
2018-12-22T05:21:28.556Z,71.17
2018-12-22T05:23:57.568Z,71.83
2018-12-22T05:26:26.553Z,71.81
2018-12-22T05:28:55.515Z,71.87
2018-12-22T05:31:24.651Z,71.97
2018-12-22T05:33:54.001Z,72.23
2018-12-22T05:36:23.222Z,71.29
2018-12-22T05:38:52.281Z,71.46
2018-12-22T05:41:21.635Z,71.51
2018-12-22T05:43:50.845Z,71.88
2018-12-22T05:46:22.881Z,71.86
2018-12-22T05:48:51.815Z,71.60
2018-12-22T05:51:21.652Z,71.27
2018-12-22T05:53:50.772Z,71.82
2018-12-22T05:56:20.265Z,71.77
2018-12-22T05:58:48.975Z,71.55
2018-12-22T06:01:18.059Z,71.65
2018-12-22T06:03:47.008Z,71.56
2018-12-22T06:06:16.304Z,71.52
2018-12-22T06:08:45.580Z,71.35
2018-12-22T06:11:14.676Z,71.27
2018-12-22T06:13:43.838Z,71.02
2018-12-22T06:16:13.168Z,70.79
2018-12-22T06:18:42.754Z,70.49
2018-12-22T06:21:12.032Z,70.67
2018-12-22T06:23:41.378Z,70.22
2018-12-22T06:26:10.238Z,70.87
2018-12-22T06:28:39.112Z,70.75
2018-12-22T06:31:08.185Z,70.93
2018-12-22T06:33:37.410Z,70.97
2018-12-22T06:36:06.527Z,71.07
2018-12-22T06:38:35.779Z,70.41
2018-12-22T06:41:06.617Z,70.40
2018-12-22T06:43:35.838Z,70.54
2018-12-22T06:46:05.773Z,70.65
2018-12-22T06:48:35.287Z,70.80
2018-12-22T06:51:04.133Z,70.83
2018-12-22T06:53:33.126Z,71.35
2018-12-22T06:56:01.975Z,71.49
2018-12-22T06:58:31.043Z,71.53
2018-12-22T07:01:00.380Z,71.67
2018-12-22T07:03:29.572Z,71.19
2018-12-22T07:05:58.704Z,71.52
2018-12-22T07:08:27.932Z,71.17
2018-12-22T07:10:57.134Z,71.58
2018-12-22T07:13:26.326Z,72.01
2018-12-22T07:15:55.682Z,71.42
2018-12-22T07:18:24.719Z,71.80
2018-12-22T07:20:53.871Z,71.76
2018-12-22T07:23:22.992Z,72.01
2018-12-22T07:25:52.312Z,71.97
2018-12-22T07:28:21.300Z,72.12
2018-12-22T07:30:50.512Z,72.08
2018-12-22T07:33:19.422Z,72.10
2018-12-22T07:35:48.669Z,72.01
2018-12-22T07:38:17.784Z,71.58
2018-12-22T07:40:46.909Z,71.72
2018-12-22T07:43:16.085Z,71.94
2018-12-22T07:45:45.279Z,71.86
2018-12-22T07:48:14.676Z,72.05
2018-12-22T07:50:43.897Z,72.02
2018-12-22T07:53:13.337Z,72.00
2018-12-22T07:55:42.652Z,71.58
2018-12-22T07:58:11.712Z,71.07
2018-12-22T08:00:41.004Z,71.77
2018-12-22T08:03:10.022Z,71.36
2018-12-22T08:05:39.297Z,71.75
2018-12-22T08:08:08.545Z,71.96
2018-12-22T08:10:37.679Z,71.81
2018-12-22T08:13:06.812Z,71.98
2018-12-22T08:15:36.240Z,71.65
2018-12-22T08:18:06.379Z,71.44
2018-12-22T08:20:35.636Z,71.17
2018-12-22T08:23:04.983Z,71.82
2018-12-22T08:25:34.282Z,71.82
2018-12-22T08:28:03.581Z,71.92
2018-12-22T08:30:32.643Z,72.22
2018-12-22T08:33:01.587Z,72.42
2018-12-22T08:35:30.968Z,72.51
2018-12-22T08:38:01.023Z,72.23
2018-12-22T08:40:30.261Z,72.21
2018-12-22T08:42:59.029Z,72.62
2018-12-22T08:45:28.235Z,72.74
2018-12-22T08:47:57.348Z,72.53
2018-12-22T08:50:26.744Z,71.95
2018-12-22T08:52:55.594Z,72.21
2018-12-22T08:55:24.423Z,72.04
2018-12-22T08:57:53.209Z,72.06
2018-12-22T09:00:22.529Z,72.50
2018-12-22T09:02:51.535Z,72.27
2018-12-22T09:05:20.417Z,72.57
2018-12-22T09:07:49.676Z,72.73
2018-12-22T09:10:18.739Z,72.62
2018-12-22T09:12:47.925Z,72.42
2018-12-22T09:15:17.667Z,72.62
2018-12-22T09:17:46.609Z,72.96
2018-12-22T09:20:15.936Z,72.93
2018-12-22T09:22:45.464Z,73.05
2018-12-22T09:25:14.402Z,73.12
2018-12-22T09:27:43.269Z,73.14
2018-12-22T09:30:13.936Z,73.61
2018-12-22T09:32:42.975Z,73.36
2018-12-22T09:35:12.330Z,73.41
2018-12-22T09:37:41.390Z,73.45
2018-12-22T09:40:10.768Z,73.10
2018-12-22T09:42:39.771Z,73.26
2018-12-22T09:45:09.637Z,73.06
2018-12-22T09:47:38.727Z,73.14
2018-12-22T09:50:10.969Z,72.76
2018-12-22T09:52:40.268Z,73.37
2018-12-22T09:55:09.906Z,73.42
2018-12-22T09:57:39.343Z,73.36
2018-12-22T10:00:10.938Z,73.32
2018-12-22T10:02:40.331Z,73.57
2018-12-22T10:05:09.904Z,73.36
2018-12-22T10:07:39.171Z,73.26
2018-12-22T10:10:13.174Z,73.45
2018-12-22T10:12:42.560Z,73.32
2018-12-22T10:15:11.521Z,73.47
2018-12-22T10:17:40.771Z,73.40
2018-12-22T10:20:10.225Z,73.25
2018-12-22T10:22:39.354Z,73.07
2018-12-22T10:27:35.437Z,72.89
2018-12-22T10:30:04.764Z,73.11
2018-12-22T10:32:33.729Z,73.08
2018-12-22T10:35:03.260Z,73.03
2018-12-22T10:37:32.562Z,72.60
2018-12-22T10:40:01.369Z,72.80
2018-12-22T10:42:30.639Z,72.55
2018-12-22T10:44:59.419Z,72.52
2018-12-22T10:47:28.717Z,72.32
2018-12-22T10:49:58.095Z,72.25
2018-12-22T10:52:27.474Z,72.24
2018-12-22T10:54:56.380Z,72.08
2018-12-22T10:57:25.733Z,71.85
2018-12-22T10:59:55.113Z,71.66
2018-12-22T11:02:24.615Z,71.60
2018-12-22T11:04:53.790Z,71.31
2018-12-22T11:07:22.959Z,71.11
2018-12-22T11:09:52.490Z,71.09
2018-12-22T11:12:23.038Z,71.25
2018-12-22T11:14:52.289Z,70.96
2018-12-22T11:17:21.435Z,71.10
2018-12-22T11:19:50.866Z,71.65
2018-12-22T11:22:20.321Z,71.52
2018-12-22T11:24:49.536Z,71.56
2018-12-22T11:27:18.513Z,71.34
2018-12-22T11:29:47.733Z,71.45
2018-12-22T11:32:17.146Z,70.80
2018-12-22T11:34:46.261Z,70.72
2018-12-22T11:37:15.778Z,70.83
2018-12-22T11:39:44.986Z,70.91
2018-12-22T11:42:14.202Z,70.80
2018-12-22T11:44:43.055Z,70.65
2018-12-22T11:47:21.066Z,70.14
2018-12-22T11:49:50.151Z,70.33
2018-12-22T11:52:19.369Z,70.52
2018-12-22T11:54:48.561Z,70.09
2018-12-22T11:57:17.947Z,70.54
2018-12-22T11:59:47.081Z,70.58
2018-12-22T12:02:16.488Z,70.48
2018-12-22T12:04:46.014Z,70.12
2018-12-22T12:07:15.291Z,70.03
2018-12-22T12:09:44.560Z,70.00
2018-12-22T12:12:13.566Z,69.97
2018-12-22T12:14:43.387Z,69.73
2018-12-22T12:19:30.281Z,69.75
2018-12-22T12:21:59.479Z,69.89
2018-12-22T12:24:28.800Z,69.97
2018-12-22T12:26:58.431Z,69.72
2018-12-22T12:29:27.303Z,70.01
2018-12-22T12:31:56.213Z,70.07
2018-12-22T12:34:25.790Z,69.54
2018-12-22T12:36:54.928Z,69.82
2018-12-22T12:39:23.946Z,69.83
2018-12-22T12:41:53.700Z,70.02
2018-12-22T12:44:22.811Z,69.43
2018-12-22T12:46:53.503Z,69.09
2018-12-22T12:49:24.143Z,68.77
2018-12-22T12:51:53.590Z,68.95
2018-12-22T12:54:23.586Z,69.28
2018-12-22T12:56:55.332Z,69.36
2018-12-22T12:59:26.025Z,69.33
2018-12-22T13:02:00.951Z,69.44
2018-12-22T13:04:27.861Z,69.99
2018-12-22T13:06:57.596Z,69.68
2018-12-22T13:09:26.821Z,69.56
2018-12-22T13:11:58.290Z,68.72
2018-12-22T13:14:27.413Z,69.18
2018-12-22T13:16:56.267Z,69.13
2018-12-22T13:19:25.478Z,68.73
2018-12-22T13:21:55.298Z,68.30
2018-12-22T13:24:24.327Z,68.35
2018-12-22T13:26:53.961Z,68.02
2018-12-22T13:29:22.913Z,68.16
2018-12-22T13:31:51.845Z,67.69
2018-12-22T13:34:21.819Z,67.73
2018-12-22T13:36:50.819Z,67.94
2018-12-22T13:39:23.704Z,67.86
2018-12-22T13:41:52.930Z,68.07
2018-12-22T13:44:21.969Z,67.71
2018-12-22T13:46:51.349Z,66.94
2018-12-22T13:49:21.081Z,66.94
2018-12-22T13:51:50.442Z,66.63
2018-12-22T13:54:23.547Z,66.14
2018-12-22T13:56:52.316Z,65.29
2018-12-22T13:59:21.120Z,65.28
2018-12-22T14:01:59.987Z,64.62
2018-12-22T14:04:29.871Z,65.18
2018-12-22T14:06:59.003Z,65.00
2018-12-22T14:09:28.349Z,64.47
2018-12-22T14:11:57.118Z,64.10
2018-12-22T14:14:32.841Z,63.89
2018-12-22T14:17:34.736Z,63.34
2018-12-22T14:20:08.687Z,63.68
2018-12-22T14:22:37.811Z,63.15
2018-12-22T14:25:12.496Z,63.33
2018-12-22T14:27:41.743Z,62.74
2018-12-22T14:30:12.457Z,62.75
2018-12-22T14:32:41.753Z,62.91
2018-12-22T14:35:18.325Z,62.41
2018-12-22T14:37:47.431Z,62.49
2018-12-22T14:40:16.650Z,61.93
2018-12-22T14:42:45.584Z,61.94
2018-12-22T14:45:15.377Z,61.36
2018-12-22T14:47:44.374Z,61.81
2018-12-22T14:50:13.502Z,61.53
2018-12-22T14:52:42.679Z,62.24
2018-12-22T14:55:11.850Z,61.37
2018-12-22T14:57:47.027Z,60.64
2018-12-22T15:00:16.493Z,61.04
2018-12-22T15:02:45.654Z,61.05
2018-12-22T15:05:15.096Z,61.09
2018-12-22T15:07:43.911Z,61.02
2018-12-22T15:10:13.280Z,61.53
2018-12-22T15:12:42.893Z,61.81
2018-12-22T15:15:12.283Z,61.90
2018-12-22T15:17:41.771Z,61.49
2018-12-22T15:20:14.613Z,61.57
2018-12-22T15:22:43.916Z,61.96
2018-12-22T15:25:12.940Z,62.39
2018-12-22T15:27:42.286Z,62.30
2018-12-22T15:30:13.308Z,62.35
2018-12-22T15:32:44.404Z,62.32
2018-12-22T15:35:14.436Z,61.94
2018-12-22T15:37:44.114Z,62.01
2018-12-22T15:40:13.394Z,61.43
2018-12-22T15:42:42.746Z,61.03
2018-12-22T15:45:13.867Z,61.13
2018-12-22T15:47:43.983Z,61.56
2018-12-22T15:50:15.941Z,61.33
2018-12-22T15:52:45.816Z,60.91
2018-12-22T15:55:15.052Z,61.45
2018-12-22T15:57:44.588Z,61.71
2018-12-22T16:00:14.197Z,62.25
2018-12-22T16:02:42.959Z,62.28
2018-12-22T16:05:12.441Z,62.44
2018-12-22T16:07:42.019Z,62.69
2018-12-22T16:10:13.857Z,62.77
2018-12-22T16:12:42.840Z,62.93
2018-12-22T16:15:14.623Z,62.40
2018-12-22T16:17:43.892Z,62.36
2018-12-22T16:20:13.412Z,61.90
2018-12-22T16:22:47.048Z,61.67
2018-12-22T16:25:16.387Z,62.52
2018-12-22T16:27:45.354Z,63.11
2018-12-22T16:30:18.854Z,63.06
2018-12-22T16:32:47.927Z,63.01
2018-12-22T16:35:16.895Z,62.82
2018-12-22T16:37:46.307Z,62.72
2018-12-22T16:40:15.367Z,62.40
2018-12-22T16:42:44.360Z,62.95
2018-12-22T16:45:15.358Z,63.05
2018-12-22T16:47:44.547Z,63.42
2018-12-22T16:50:14.993Z,63.56
2018-12-22T16:52:44.517Z,63.69
2018-12-22T16:55:14.588Z,63.82
2018-12-22T16:57:49.377Z,63.91
2018-12-22T17:00:22.122Z,64.11
2018-12-22T17:02:56.130Z,64.19
2018-12-22T17:05:25.491Z,64.18
2018-12-22T17:07:54.465Z,64.40
2018-12-22T17:10:25.225Z,64.14
2018-12-22T17:12:54.739Z,63.85
2018-12-22T17:15:23.958Z,64.24
2018-12-22T17:17:53.273Z,64.19
2018-12-22T17:20:22.478Z,64.25
2018-12-22T17:23:05.289Z,64.28
2018-12-22T17:25:39.789Z,63.70
2018-12-22T17:28:08.799Z,63.90
2018-12-22T17:30:38.123Z,64.26
2018-12-22T17:33:07.346Z,64.64
2018-12-22T17:35:37.979Z,64.74
2018-12-22T17:38:07.148Z,64.71
2018-12-22T17:40:36.013Z,64.43
2018-12-22T17:43:05.222Z,64.49
2018-12-22T17:45:34.421Z,64.50
2018-12-22T17:48:03.831Z,64.20
2018-12-22T17:50:33.061Z,64.46
2018-12-22T17:53:02.204Z,65.04
2018-12-22T17:55:31.057Z,65.16
2018-12-22T17:58:00.048Z,64.96
2018-12-22T18:00:29.136Z,65.10
2018-12-22T18:02:58.297Z,65.58
2018-12-22T18:05:27.759Z,65.49
2018-12-22T18:07:57.269Z,64.82
2018-12-22T18:10:26.442Z,64.69
2018-12-22T18:12:55.427Z,64.86
2018-12-22T18:15:25.057Z,64.84
2018-12-22T18:17:54.283Z,64.89
2018-12-22T18:20:23.814Z,65.49
2018-12-22T18:22:52.882Z,65.89
2018-12-22T18:25:21.944Z,66.00
2018-12-22T18:27:51.077Z,65.72
2018-12-22T18:30:19.991Z,65.61
2018-12-22T18:32:49.356Z,65.46
2018-12-22T18:35:18.483Z,65.05
2018-12-22T18:37:47.407Z,64.64
2018-12-22T18:40:19.137Z,65.12
2018-12-22T18:42:48.230Z,65.57
2018-12-22T18:45:17.059Z,65.79
2018-12-22T18:47:46.678Z,65.97
2018-12-22T18:50:19.534Z,66.01
2018-12-22T18:52:48.947Z,66.16
2018-12-22T18:55:18.138Z,66.45
2018-12-22T18:57:49.362Z,66.57
2018-12-22T19:00:20.729Z,66.86
2018-12-22T19:02:50.419Z,66.88
2018-12-22T19:05:21.608Z,65.77
2018-12-22T19:07:52.110Z,65.08
2018-12-22T19:10:27.027Z,65.07
2018-12-22T19:12:56.285Z,65.40
2018-12-22T19:15:25.513Z,65.36
2018-12-22T19:17:54.641Z,66.13
2018-12-22T19:20:27.861Z,66.27
2018-12-22T19:22:57.037Z,66.45
2018-12-22T19:25:26.748Z,66.96
2018-12-22T19:27:55.524Z,66.97
2018-12-22T19:30:24.619Z,67.29
2018-12-22T19:32:53.751Z,67.51
2018-12-22T19:35:23.631Z,67.41
2018-12-22T19:37:53.223Z,67.68
2018-12-22T19:40:22.044Z,67.83
2018-12-22T19:42:51.496Z,67.43
2018-12-22T19:47:02.063Z,67.72
2018-12-22T19:49:31.257Z,67.76
2018-12-22T19:52:00.427Z,68.03
2018-12-22T19:54:30.031Z,68.20
2018-12-22T19:56:59.229Z,68.25
2018-12-22T19:59:28.475Z,68.50
2018-12-22T20:01:57.852Z,68.29
2018-12-22T20:04:26.705Z,68.38
2018-12-22T20:06:55.799Z,68.22
2018-12-22T20:09:25.049Z,68.57
2018-12-22T20:11:54.026Z,68.50
2018-12-22T20:14:22.765Z,68.50
2018-12-22T20:16:52.363Z,68.60
2018-12-22T20:19:21.193Z,68.47
2018-12-22T20:21:50.565Z,68.46
2018-12-22T20:24:19.605Z,68.65
2018-12-22T20:26:48.467Z,68.32
2018-12-22T20:29:17.637Z,68.33
2018-12-22T20:31:46.788Z,68.50
2018-12-22T20:34:16.192Z,68.43
2018-12-22T20:36:45.333Z,68.37
2018-12-22T20:39:14.538Z,68.44
2018-12-22T20:41:43.749Z,68.51
2018-12-22T20:44:12.729Z,68.73
2018-12-22T20:46:41.893Z,68.45
2018-12-22T20:49:10.776Z,68.39
2018-12-22T20:51:39.847Z,68.34
2018-12-22T20:54:09.319Z,68.64
2018-12-22T20:56:38.198Z,68.28
2018-12-22T20:59:07.015Z,68.56
2018-12-22T21:01:36.158Z,68.39
2018-12-22T21:04:05.353Z,68.57
2018-12-22T21:06:34.674Z,68.30
2018-12-22T21:09:05.074Z,68.28
2018-12-22T21:11:33.975Z,68.68
2018-12-22T21:14:03.286Z,68.36
2018-12-22T21:16:32.397Z,68.35
2018-12-22T21:19:01.182Z,68.08
2018-12-22T21:21:29.965Z,68.46
2018-12-22T21:23:59.001Z,68.49
2018-12-22T21:26:27.762Z,68.51
2018-12-22T21:28:57.151Z,68.33
2018-12-22T21:31:26.405Z,68.22
2018-12-22T21:33:55.372Z,67.87
2018-12-22T21:36:24.271Z,67.39
2018-12-22T21:38:53.280Z,67.56
2018-12-22T21:41:22.213Z,67.76
2018-12-22T21:43:51.033Z,67.48
2018-12-22T21:46:20.364Z,67.45
2018-12-22T21:48:49.490Z,67.10
2018-12-22T21:51:18.396Z,67.06
2018-12-22T21:53:47.433Z,67.29
2018-12-22T21:56:16.402Z,67.16
2018-12-22T21:58:45.420Z,67.12
2018-12-22T22:01:14.918Z,66.78
2018-12-22T22:03:44.332Z,66.80
2018-12-22T22:06:13.334Z,66.63
2018-12-22T22:08:42.583Z,66.44
2018-12-22T22:11:11.403Z,66.37
2018-12-22T22:13:40.566Z,66.58
2018-12-22T22:16:09.972Z,66.70
2018-12-22T22:18:38.669Z,67.02
2018-12-22T22:21:07.464Z,67.02
2018-12-22T22:23:36.530Z,66.73
2018-12-22T22:26:05.691Z,66.64
2018-12-22T22:28:34.431Z,66.66
2018-12-22T22:31:03.940Z,66.63
2018-12-22T22:33:33.219Z,66.45
2018-12-22T22:36:02.204Z,66.56
2018-12-22T22:38:31.271Z,66.49
2018-12-22T22:41:00.412Z,66.63
2018-12-22T22:43:29.401Z,66.42
2018-12-22T22:45:58.689Z,66.53
2018-12-22T22:48:27.944Z,66.55
2018-12-22T22:50:57.034Z,66.59
2018-12-22T22:53:26.028Z,66.19
2018-12-22T22:55:54.981Z,65.95
2018-12-22T22:58:24.117Z,65.75
2018-12-22T23:00:53.637Z,65.88
2018-12-22T23:03:23.492Z,65.71
2018-12-22T23:05:52.484Z,65.68
2018-12-22T23:08:22.107Z,65.66
2018-12-22T23:10:50.953Z,65.60
2018-12-22T23:13:20.087Z,65.46
2018-12-22T23:15:49.426Z,65.69
2018-12-22T23:18:18.481Z,65.32
2018-12-22T23:20:47.467Z,65.32
2018-12-22T23:23:17.022Z,65.11
2018-12-22T23:25:46.334Z,65.23
2018-12-22T23:28:15.614Z,64.94
2018-12-22T23:30:45.024Z,64.74
2018-12-22T23:33:13.860Z,65.00
2018-12-22T23:35:42.785Z,65.08
2018-12-22T23:38:11.944Z,64.54
2018-12-22T23:40:41.330Z,64.55
2018-12-22T23:43:10.265Z,64.50
2018-12-22T23:45:39.796Z,64.56
2018-12-22T23:48:08.701Z,64.39
2018-12-22T23:50:37.475Z,64.54
2018-12-22T23:53:06.972Z,64.66
2018-12-22T23:55:35.789Z,64.90
2018-12-22T23:58:05.130Z,64.91
